createdAt,value
2019-03-24T00:00:02.662Z,22.35
2019-03-24T00:01:04.052Z,24.08
2019-03-24T00:02:03.311Z,24.6
2019-03-24T00:03:03.591Z,25.38
2019-03-24T00:04:03.283Z,24.58
2019-03-24T00:05:03.624Z,24.46
2019-03-24T00:06:03.430Z,23.05
2019-03-24T00:07:03.503Z,23.55
2019-03-24T00:08:03.332Z,24.64
2019-03-24T00:09:03.618Z,23.18
2019-03-24T00:10:03.391Z,23.93
2019-03-24T00:11:03.352Z,25.42
2019-03-24T00:12:03.156Z,23.92
2019-03-24T00:13:03.199Z,24.01
2019-03-24T00:14:03.241Z,24.52
2019-03-24T00:15:03.373Z,23.97
2019-03-24T00:16:03.117Z,25.2
2019-03-24T00:17:03.207Z,24.28
2019-03-24T00:18:02.840Z,25.76
2019-03-24T00:19:03.159Z,25.46
2019-03-24T00:20:02.861Z,25.46
2019-03-24T00:21:03.223Z,25.66
2019-03-24T00:22:03.204Z,25.16
2019-03-24T00:23:02.905Z,24.78
2019-03-24T00:24:03.201Z,24.78
2019-03-24T00:25:02.850Z,26.11
2019-03-24T00:26:02.980Z,25.67
2019-03-24T00:27:03.278Z,25.67
2019-03-24T00:28:03.031Z,25.09
2019-03-24T00:29:02.954Z,24.45
2019-03-24T00:30:02.779Z,23.36
2019-03-24T00:31:03.200Z,23.77
2019-03-24T00:32:02.963Z,23.71
2019-03-24T00:33:03.190Z,25.05
2019-03-24T00:34:03.099Z,23.07
2019-03-24T00:35:03.229Z,22.26
2019-03-24T00:36:03.011Z,25.13
2019-03-24T00:37:03.297Z,23.32
2019-03-24T00:38:03.214Z,25.46
2019-03-24T00:39:02.975Z,24.76
2019-03-24T00:40:03.196Z,25.41
2019-03-24T00:41:02.906Z,25.3
2019-03-24T00:42:02.895Z,25.02
2019-03-24T00:43:03.014Z,24.42
2019-03-24T00:44:03.007Z,23.79
2019-03-24T00:45:03.074Z,25.5
2019-03-24T00:46:02.756Z,24.47
2019-03-24T00:47:02.872Z,26.28
2019-03-24T00:48:03.328Z,23.85
2019-03-24T00:49:03.157Z,24.83
2019-03-24T00:50:03.171Z,25.94
2019-03-24T00:51:03.169Z,25.59
2019-03-24T00:52:03.194Z,24.26
2019-03-24T00:53:02.733Z,23.13
2019-03-24T00:54:02.999Z,23.38
2019-03-24T00:55:03.134Z,24.48
2019-03-24T00:56:02.964Z,23.32
2019-03-24T00:57:02.847Z,24.59
2019-03-24T00:58:03.007Z,23.01
2019-03-24T00:59:03.068Z,25.21
2019-03-24T01:00:02.950Z,22.69
2019-03-24T01:01:03.209Z,23.78
2019-03-24T01:02:03.103Z,23.22
2019-03-24T01:03:03.036Z,22.81
2019-03-24T01:04:03.031Z,22.68
2019-03-24T01:05:03.122Z,21.87
2019-03-24T01:06:03.056Z,24.17
2019-03-24T01:07:03.072Z,23.59
2019-03-24T01:08:03.022Z,23.15
2019-03-24T01:09:02.841Z,24.26
2019-03-24T01:10:02.967Z,24.32
2019-03-24T01:11:02.906Z,23.78
2019-03-24T01:12:02.978Z,23.78
2019-03-24T01:13:02.747Z,24.38
2019-03-24T01:14:02.793Z,25.75
2019-03-24T01:15:02.945Z,25.75
2019-03-24T01:16:02.915Z,24.05
2019-03-24T01:17:02.824Z,24.08
2019-03-24T01:18:02.851Z,23.94
2019-03-24T01:19:02.886Z,23.14
2019-03-24T01:20:03.764Z,23.74
2019-03-24T01:21:02.937Z,23
2019-03-24T01:22:03.537Z,22.75
2019-03-24T01:23:02.943Z,21.66
2019-03-24T01:24:02.746Z,21.89
2019-03-24T01:25:02.952Z,22.17
2019-03-24T01:26:02.605Z,22.58
2019-03-24T01:27:03.658Z,22.76
2019-03-24T01:28:02.789Z,23.85
2019-03-24T01:29:02.819Z,23.09
2019-03-24T01:30:03.685Z,23.08
2019-03-24T01:31:02.863Z,23.29
2019-03-24T01:32:02.993Z,24.57
2019-03-24T01:33:03.777Z,23.6
2019-03-24T01:34:03.697Z,24.69
2019-03-24T01:35:02.818Z,25.25
2019-03-24T01:36:02.972Z,23.04
2019-03-24T01:37:03.513Z,23.89
2019-03-24T01:38:03.649Z,23.62
2019-03-24T01:39:03.651Z,24.37
2019-03-24T01:40:03.635Z,22.88
2019-03-24T01:41:03.693Z,23.91
2019-03-24T01:42:03.390Z,23.79
2019-03-24T01:43:04.063Z,23.52
2019-03-24T01:44:03.233Z,23.32
2019-03-24T01:45:03.483Z,23.72
2019-03-24T01:46:03.669Z,22.43
2019-03-24T01:47:02.780Z,22.64
2019-03-24T01:48:03.422Z,23.57
2019-03-24T01:49:03.447Z,23.78
2019-03-24T01:50:03.267Z,23.31
2019-03-24T01:51:03.244Z,24.35
2019-03-24T01:52:03.588Z,23.95
2019-03-24T01:53:03.323Z,23.55
2019-03-24T01:54:03.558Z,21.62
2019-03-24T01:55:03.331Z,23.16
2019-03-24T01:56:03.635Z,24.75
2019-03-24T01:57:03.675Z,23.02
2019-03-24T01:58:03.622Z,22.24
2019-03-24T01:59:03.613Z,21.54
2019-03-24T02:00:03.609Z,24.39
2019-03-24T02:01:03.522Z,24.39
2019-03-24T02:02:03.421Z,23.09
2019-03-24T02:03:03.568Z,23.09
2019-03-24T02:04:03.439Z,23.34
2019-03-24T02:05:03.293Z,22.34
2019-03-24T02:06:03.535Z,22.34
2019-03-24T02:07:03.799Z,21.92
2019-03-24T02:08:03.705Z,21.55
2019-03-24T02:09:03.427Z,23.34
2019-03-24T02:10:03.359Z,20.96
2019-03-24T02:11:03.495Z,25.35
2019-03-24T02:12:03.422Z,22.54
2019-03-24T02:13:03.483Z,22.24
2019-03-24T02:14:03.365Z,22.48
2019-03-24T02:15:03.512Z,22.8
2019-03-24T02:16:09.821Z,22.31
2019-03-24T02:17:03.449Z,22.7
2019-03-24T02:18:03.390Z,22.09
2019-03-24T02:19:03.490Z,20.88
2019-03-24T02:20:03.702Z,23.74
2019-03-24T02:21:03.600Z,22.09
2019-03-24T02:22:03.288Z,23.83
2019-03-24T02:23:04.139Z,22.03
2019-03-24T02:24:03.389Z,23.52
2019-03-24T02:25:03.370Z,22.98
2019-03-24T02:26:03.398Z,23.25
2019-03-24T02:27:03.394Z,25.02
2019-03-24T02:28:03.342Z,24.64
2019-03-24T02:29:03.132Z,23.15
2019-03-24T02:30:03.357Z,23.15
2019-03-24T02:31:03.270Z,22.96
2019-03-24T02:32:03.195Z,21.57
2019-03-24T02:33:03.035Z,21.52
2019-03-24T02:34:03.148Z,23.76
2019-03-24T02:35:03.048Z,21.7
2019-03-24T02:36:03.243Z,22.94
2019-03-24T02:37:03.107Z,21.46
2019-03-24T02:38:03.263Z,22.57
2019-03-24T02:39:03.225Z,21.84
2019-03-24T02:40:02.812Z,23.92
2019-03-24T02:41:03.158Z,23.51
2019-03-24T02:42:03.046Z,23.68
2019-03-24T02:43:03.175Z,22.83
2019-03-24T02:44:02.831Z,21.05
2019-03-24T02:45:03.288Z,21.75
2019-03-24T02:46:03.226Z,20.8
2019-03-24T02:47:03.116Z,21.56
2019-03-24T02:48:03.091Z,20.62
2019-03-24T02:49:03.350Z,20.62
2019-03-24T02:50:03.150Z,20.02
2019-03-24T02:51:02.894Z,20.02
2019-03-24T02:52:03.073Z,20.75
2019-03-24T02:53:02.929Z,20.72
2019-03-24T02:54:03.122Z,20.72
2019-03-24T02:55:02.961Z,20.76
2019-03-24T02:56:03.033Z,21.61
2019-03-24T02:57:02.826Z,22.55
2019-03-24T02:58:03.068Z,22.32
2019-03-24T02:59:02.857Z,22.45
2019-03-24T03:00:02.877Z,20.68
2019-03-24T03:01:03.033Z,21.43
2019-03-24T03:02:03.217Z,21.29
2019-03-24T03:03:03.431Z,20.36
2019-03-24T03:04:03.797Z,22.11
2019-03-24T03:05:03.109Z,22.56
2019-03-24T03:06:03.645Z,23.56
2019-03-24T03:07:03.776Z,21.1
2019-03-24T03:08:03.509Z,22.87
2019-03-24T03:09:02.733Z,23.15
2019-03-24T03:10:03.490Z,23.63
2019-03-24T03:11:03.522Z,22.07
2019-03-24T03:12:03.736Z,22.37
2019-03-24T03:13:02.785Z,22.76
2019-03-24T03:14:03.833Z,22.06
2019-03-24T03:15:02.706Z,22.82
2019-03-24T03:16:02.590Z,22.13
2019-03-24T03:17:02.878Z,22.5
2019-03-24T03:18:02.870Z,23.46
2019-03-24T03:19:03.616Z,22.36
2019-03-24T03:20:02.977Z,23.02
2019-03-24T03:21:03.632Z,23.39
2019-03-24T03:22:02.930Z,21.46
2019-03-24T03:23:03.493Z,23.36
2019-03-24T03:24:03.346Z,23.21
2019-03-24T03:25:03.677Z,23.24
2019-03-24T03:26:03.653Z,22.61
2019-03-24T03:27:03.651Z,22.83
2019-03-24T03:28:03.776Z,21.65
2019-03-24T03:29:03.569Z,23.33
2019-03-24T03:30:03.320Z,22.11
2019-03-24T03:31:03.453Z,20.93
2019-03-24T03:32:03.432Z,20.34
2019-03-24T03:33:03.584Z,21.78
2019-03-24T03:34:03.508Z,20.88
2019-03-24T03:35:03.401Z,22.71
2019-03-24T03:36:03.296Z,23.13
2019-03-24T03:37:03.416Z,23.13
2019-03-24T03:38:03.090Z,22.35
2019-03-24T03:39:03.639Z,22.44
2019-03-24T03:40:03.765Z,22.44
2019-03-24T03:41:03.651Z,24.34
2019-03-24T03:42:03.554Z,24.34
2019-03-24T03:43:03.740Z,23.02
2019-03-24T03:44:03.599Z,20.85
2019-03-24T03:45:03.354Z,22.61
2019-03-24T03:46:03.393Z,21.1
2019-03-24T03:47:03.457Z,22.16
2019-03-24T03:48:03.212Z,22.85
2019-03-24T03:49:03.418Z,22.24
2019-03-24T03:50:03.483Z,23.31
2019-03-24T03:51:03.191Z,22.88
2019-03-24T03:52:03.070Z,22.36
2019-03-24T03:53:03.107Z,22.88
2019-03-24T03:54:03.297Z,21.31
2019-03-24T03:55:03.287Z,23.17
2019-03-24T03:56:03.221Z,20.11
2019-03-24T03:57:03.202Z,21.51
2019-03-24T03:58:02.924Z,21.91
2019-03-24T03:59:02.811Z,22.27
2019-03-24T04:00:04.905Z,23.41
2019-03-24T04:01:03.669Z,22.78
2019-03-24T04:02:03.025Z,22.92
2019-03-24T04:03:03.121Z,20.94
2019-03-24T04:04:03.163Z,22.25
2019-03-24T04:05:03.200Z,21.52
2019-03-24T04:06:03.041Z,22.12
2019-03-24T04:07:03.039Z,20.79
2019-03-24T04:08:03.197Z,21.41
2019-03-24T04:09:02.849Z,22.61
2019-03-24T04:10:03.297Z,21.85
2019-03-24T04:11:02.996Z,22.08
2019-03-24T04:12:03.104Z,22.11
2019-03-24T04:13:02.843Z,21.31
2019-03-24T04:14:02.948Z,20.96
2019-03-24T04:15:03.077Z,20.97
2019-03-24T04:16:02.999Z,23
2019-03-24T04:17:08.064Z,21.64
2019-03-24T04:18:03.092Z,21.28
2019-03-24T04:19:02.807Z,21.52
2019-03-24T04:20:03.303Z,21.76
2019-03-24T04:21:03.141Z,22.08
2019-03-24T04:22:03.426Z,20.26
2019-03-24T04:23:03.790Z,19.14
2019-03-24T04:24:03.787Z,21.08
2019-03-24T04:25:03.793Z,20.83
2019-03-24T04:26:03.474Z,21.25
2019-03-24T04:27:03.697Z,22.81
2019-03-24T04:28:02.892Z,22.81
2019-03-24T04:29:02.698Z,23.92
2019-03-24T04:30:03.333Z,20.98
2019-03-24T04:31:02.838Z,20.98
2019-03-24T04:32:03.505Z,22.15
2019-03-24T04:33:03.515Z,20.83
2019-03-24T04:34:03.538Z,20.83
2019-03-24T04:35:03.624Z,21.93
2019-03-24T04:36:03.534Z,22.11
2019-03-24T04:37:03.387Z,22.59
2019-03-24T04:38:03.677Z,21.16
2019-03-24T04:39:03.580Z,21.81
2019-03-24T04:40:02.978Z,23.2
2019-03-24T04:41:03.552Z,20.05
2019-03-24T04:42:03.629Z,21.05
2019-03-24T04:43:03.489Z,20.25
2019-03-24T04:44:03.540Z,22.36
2019-03-24T04:45:03.423Z,20.53
2019-03-24T04:46:03.582Z,23.14
2019-03-24T04:47:03.645Z,21.11
2019-03-24T04:48:03.461Z,21.36
2019-03-24T04:49:03.372Z,19.11
2019-03-24T04:50:03.492Z,20.62
2019-03-24T04:51:03.270Z,20.6
2019-03-24T04:52:03.341Z,21.46
2019-03-24T04:53:03.397Z,22.13
2019-03-24T04:54:03.120Z,20.17
2019-03-24T04:55:03.469Z,21.29
2019-03-24T04:56:03.068Z,21.92
2019-03-24T04:57:03.362Z,20.95
2019-03-24T04:58:02.934Z,20.58
2019-03-24T04:59:03.393Z,21.96
2019-03-24T05:00:03.495Z,20.92
2019-03-24T05:01:03.234Z,21.62
2019-03-24T05:02:03.152Z,22.14
2019-03-24T05:03:03.154Z,22.27
2019-03-24T05:04:02.963Z,22.91
2019-03-24T05:05:03.151Z,23.86
2019-03-24T05:06:03.411Z,23.59
2019-03-24T05:07:03.005Z,24.48
2019-03-24T05:08:03.252Z,24.08
2019-03-24T05:09:02.991Z,24.3
2019-03-24T05:10:03.505Z,26.24
2019-03-24T05:11:03.226Z,25.59
2019-03-24T05:12:03.268Z,26.45
2019-03-24T05:13:02.978Z,24.86
2019-03-24T05:14:03.207Z,25.65
2019-03-24T05:15:03.177Z,24.62
2019-03-24T05:16:02.828Z,24.75
2019-03-24T05:17:03.146Z,24.15
2019-03-24T05:18:03.024Z,24.18
2019-03-24T05:19:03.253Z,24.18
2019-03-24T05:20:02.843Z,23.33
2019-03-24T05:21:03.617Z,22.84
2019-03-24T05:22:02.832Z,22.84
2019-03-24T05:23:03.353Z,22.5
2019-03-24T05:24:02.894Z,21.82
2019-03-24T05:25:03.099Z,22.49
2019-03-24T05:26:02.801Z,23.15
2019-03-24T05:27:02.860Z,20.89
2019-03-24T05:28:03.690Z,22.38
2019-03-24T05:29:03.609Z,22.98
2019-03-24T05:30:03.027Z,21.14
2019-03-24T05:31:02.751Z,21.53
2019-03-24T05:32:03.550Z,22.84
2019-03-24T05:33:02.868Z,20.82
2019-03-24T05:34:02.881Z,20.72
2019-03-24T05:35:05.898Z,22.49
2019-03-24T05:36:03.686Z,21.55
2019-03-24T05:37:03.650Z,21.14
2019-03-24T05:38:02.803Z,21.14
2019-03-24T05:39:03.503Z,21.74
2019-03-24T05:40:03.487Z,23.03
2019-03-24T05:41:02.706Z,23.18
2019-03-24T05:42:03.485Z,23.69
2019-03-24T05:43:02.720Z,23.38
2019-03-24T05:44:03.769Z,20.76
2019-03-24T05:45:03.693Z,22.5
2019-03-24T05:46:03.629Z,22.17
2019-03-24T05:47:03.636Z,24.06
2019-03-24T05:48:03.597Z,24.71
2019-03-24T05:49:03.719Z,21.16
2019-03-24T05:50:03.436Z,21.78
2019-03-24T05:51:03.562Z,24
2019-03-24T05:52:03.533Z,22.84
2019-03-24T05:53:02.704Z,22.2
2019-03-24T05:54:02.639Z,23.53
2019-03-24T05:55:02.691Z,23.34
2019-03-24T05:56:03.658Z,23.66
2019-03-24T05:57:03.554Z,24.98
2019-03-24T05:58:03.602Z,23.33
2019-03-24T05:59:03.558Z,24.34
2019-03-24T06:00:03.609Z,22.93
2019-03-24T06:01:03.692Z,23.58
2019-03-24T06:02:03.763Z,21.55
2019-03-24T06:03:03.518Z,24.79
2019-03-24T06:04:03.431Z,23.21
2019-03-24T06:05:03.750Z,23.21
2019-03-24T06:06:03.382Z,22.86
2019-03-24T06:07:03.407Z,22.87
2019-03-24T06:08:03.723Z,22.87
2019-03-24T06:09:03.400Z,25.65
2019-03-24T06:10:03.564Z,22.85
2019-03-24T06:11:03.599Z,22.85
2019-03-24T06:12:03.535Z,24.31
2019-03-24T06:13:03.562Z,24.55
2019-03-24T06:14:03.551Z,24.04
2019-03-24T06:15:03.727Z,25.14
2019-03-24T06:16:03.427Z,25.7
2019-03-24T06:17:03.975Z,25.81
2019-03-24T06:18:03.263Z,25.72
2019-03-24T06:19:03.658Z,25.13
2019-03-24T06:20:03.371Z,25.18
2019-03-24T06:21:03.486Z,26.44
2019-03-24T06:22:03.350Z,24.86
2019-03-24T06:23:03.251Z,25.07
2019-03-24T06:24:03.225Z,25.32
2019-03-24T06:25:03.397Z,26.51
2019-03-24T06:26:03.345Z,24.58
2019-03-24T06:27:03.368Z,24.59
2019-03-24T06:28:03.259Z,24.08
2019-03-24T06:29:03.422Z,24.81
2019-03-24T06:30:03.130Z,24.75
2019-03-24T06:31:03.277Z,24.46
2019-03-24T06:32:03.224Z,26.25
2019-03-24T06:33:03.149Z,25.21
2019-03-24T06:34:03.350Z,23.66
2019-03-24T06:35:03.125Z,26.03
2019-03-24T06:36:03.146Z,25.29
2019-03-24T06:37:02.826Z,24.33
2019-03-24T06:38:03.352Z,24.59
2019-03-24T06:39:03.009Z,24.46
2019-03-24T06:40:03.219Z,25.37
2019-03-24T06:41:02.996Z,24.38
2019-03-24T06:42:03.059Z,22.49
2019-03-24T06:43:03.308Z,22.7
2019-03-24T06:44:02.966Z,25.12
2019-03-24T06:45:03.394Z,24.89
2019-03-24T06:46:02.888Z,24.28
2019-03-24T06:47:03.107Z,25.03
2019-03-24T06:48:02.990Z,22.5
2019-03-24T06:49:03.138Z,24.78
2019-03-24T06:50:02.846Z,25.54
2019-03-24T06:51:02.895Z,24.02
2019-03-24T06:52:02.935Z,23.09
2019-03-24T06:53:03.470Z,23.49
2019-03-24T06:54:03.557Z,24.64
2019-03-24T06:55:03.794Z,24.28
2019-03-24T06:56:03.015Z,24.28
2019-03-24T06:57:02.860Z,25.51
2019-03-24T06:58:03.014Z,23.46
2019-03-24T06:59:02.980Z,23.46
2019-03-24T07:00:03.429Z,25.41
2019-03-24T07:01:02.983Z,24.83
2019-03-24T07:02:03.637Z,25.11
2019-03-24T07:03:02.906Z,25.11
2019-03-24T07:04:03.672Z,24.67
2019-03-24T07:05:03.731Z,24.16
2019-03-24T07:06:03.595Z,24.16
2019-03-24T07:07:02.808Z,25.09
2019-03-24T07:08:03.775Z,24.87
2019-03-24T07:09:03.007Z,25.56
2019-03-24T07:10:02.928Z,25.18
2019-03-24T07:11:03.236Z,24.11
2019-03-24T07:12:02.979Z,23.99
2019-03-24T07:13:03.036Z,24.11
2019-03-24T07:14:02.544Z,24.77
2019-03-24T07:15:02.951Z,25.05
2019-03-24T07:16:02.938Z,24.39
2019-03-24T07:17:03.707Z,26.22
2019-03-24T07:18:08.961Z,25.49
2019-03-24T07:19:03.598Z,26.25
2019-03-24T07:20:02.945Z,24.04
2019-03-24T07:21:03.684Z,22.69
2019-03-24T07:22:03.700Z,24.73
2019-03-24T07:23:02.678Z,24.64
2019-03-24T07:24:03.852Z,25.29
2019-03-24T07:25:03.614Z,25.5
2019-03-24T07:26:03.815Z,24.77
2019-03-24T07:27:03.626Z,25.26
2019-03-24T07:28:03.655Z,25.55
2019-03-24T07:29:03.346Z,26.99
2019-03-24T07:30:03.650Z,27.75
2019-03-24T07:31:03.483Z,26.72
2019-03-24T07:32:03.524Z,24.96
2019-03-24T07:33:03.628Z,27.06
2019-03-24T07:34:03.549Z,25.65
2019-03-24T07:35:03.654Z,24.42
2019-03-24T07:36:03.567Z,27.93
2019-03-24T07:37:03.708Z,26.23
2019-03-24T07:38:02.887Z,28.05
2019-03-24T07:39:03.908Z,29.74
2019-03-24T07:40:02.987Z,28.29
2019-03-24T07:41:02.808Z,29.18
2019-03-24T07:42:05.709Z,29
2019-03-24T07:43:02.796Z,25.93
2019-03-24T07:44:02.831Z,25.93
2019-03-24T07:45:03.832Z,27.85
2019-03-24T07:46:03.619Z,30.25
2019-03-24T07:47:03.663Z,30.25
2019-03-24T07:48:03.435Z,28.86
2019-03-24T07:49:03.398Z,29.35
2019-03-24T07:50:03.754Z,29.35
2019-03-24T07:51:03.734Z,29.56
2019-03-24T07:52:03.662Z,32.54
2019-03-24T07:53:03.368Z,31.41
2019-03-24T07:54:03.537Z,32.29
2019-03-24T07:55:03.582Z,33.04
2019-03-24T07:56:03.439Z,32.25
2019-03-24T07:57:03.365Z,33.95
2019-03-24T07:58:03.341Z,34.18
2019-03-24T07:59:03.099Z,36.26
2019-03-24T08:00:03.196Z,34.09
2019-03-24T08:01:03.029Z,35.61
2019-03-24T08:02:03.286Z,36.26
2019-03-24T08:03:03.280Z,36.29
2019-03-24T08:04:03.092Z,37.35
2019-03-24T08:05:03.429Z,35.02
2019-03-24T08:06:03.766Z,33.96
2019-03-24T08:07:02.851Z,35.37
2019-03-24T08:08:03.074Z,37.45
2019-03-24T08:09:03.270Z,38.95
2019-03-24T08:10:02.866Z,38.03
2019-03-24T08:11:03.163Z,36.27
2019-03-24T08:12:03.056Z,36.46
2019-03-24T08:13:03.074Z,37.12
2019-03-24T08:14:02.704Z,39.88
2019-03-24T08:15:02.838Z,35.51
2019-03-24T08:16:03.279Z,38.08
2019-03-24T08:17:03.771Z,36.21
2019-03-24T08:18:02.904Z,39.59
2019-03-24T08:19:02.857Z,36.48
2019-03-24T08:20:03.230Z,36.92
2019-03-24T08:21:02.872Z,38.26
2019-03-24T08:22:03.113Z,39.26
2019-03-24T08:23:02.678Z,39.24
2019-03-24T08:24:02.737Z,38.39
2019-03-24T08:25:02.982Z,38.56
2019-03-24T08:26:02.859Z,38.88
2019-03-24T08:27:03.671Z,36.89
2019-03-24T08:28:03.589Z,39.14
2019-03-24T08:29:02.820Z,38.02
2019-03-24T08:30:03.699Z,35.99
2019-03-24T08:31:03.449Z,39.25
2019-03-24T08:32:03.694Z,39.42
2019-03-24T08:33:03.682Z,40.21
2019-03-24T08:34:03.629Z,38.71
2019-03-24T08:35:03.775Z,37.67
2019-03-24T08:36:03.473Z,39.36
2019-03-24T08:37:03.805Z,38.1
2019-03-24T08:38:03.122Z,37.72
2019-03-24T08:39:03.797Z,38.39
2019-03-24T08:40:03.470Z,38.39
2019-03-24T08:41:02.838Z,38.31
2019-03-24T08:42:03.758Z,38.33
2019-03-24T08:43:03.578Z,38.98
2019-03-24T08:44:03.790Z,40.15
2019-03-24T08:45:03.656Z,37.86
2019-03-24T08:46:02.571Z,38.52
2019-03-24T08:47:03.583Z,40.84
2019-03-24T08:48:03.312Z,39.05
2019-03-24T08:49:03.496Z,39.78
2019-03-24T08:50:03.507Z,38.04
2019-03-24T08:51:03.196Z,39.46
2019-03-24T08:52:03.373Z,38.38
2019-03-24T08:53:03.796Z,37.34
2019-03-24T08:54:03.330Z,36.71
2019-03-24T08:55:03.240Z,38.98
2019-03-24T08:56:03.278Z,37.29
2019-03-24T08:57:03.822Z,39.69
2019-03-24T08:58:02.037Z,37.52
2019-03-24T08:59:02.968Z,38.88
2019-03-24T09:00:04.196Z,40.69
2019-03-24T09:01:03.453Z,41.04
2019-03-24T09:02:03.152Z,39.11
2019-03-24T09:03:03.314Z,40.62
2019-03-24T09:04:03.327Z,39.7
2019-03-24T09:05:03.249Z,40.33
2019-03-24T09:06:02.923Z,37.19
2019-03-24T09:07:03.019Z,37.76
2019-03-24T09:08:03.474Z,38.21
2019-03-24T09:09:02.994Z,41.89
2019-03-24T09:10:02.758Z,38.76
2019-03-24T09:11:03.050Z,38.21
2019-03-24T09:12:03.009Z,38.66
2019-03-24T09:13:03.023Z,39.61
2019-03-24T09:14:03.040Z,36.79
2019-03-24T09:15:02.888Z,37.71
2019-03-24T09:16:03.108Z,37.22
2019-03-24T09:17:03.077Z,36.64
2019-03-24T09:18:02.999Z,38.24
2019-03-24T09:19:03.668Z,37.69
2019-03-24T09:20:03.037Z,39.74
2019-03-24T09:21:02.731Z,39.49
2019-03-24T09:22:02.734Z,39.32
2019-03-24T09:23:02.762Z,38.09
2019-03-24T09:24:03.847Z,39.19
2019-03-24T09:25:02.975Z,38.76
2019-03-24T09:26:03.380Z,39.09
2019-03-24T09:27:02.947Z,40.15
2019-03-24T09:28:02.925Z,40.15
2019-03-24T09:29:02.841Z,37.65
2019-03-24T09:30:03.993Z,40.33
2019-03-24T09:31:03.247Z,40.33
2019-03-24T09:32:03.549Z,40.16
2019-03-24T09:33:03.511Z,39.64
2019-03-24T09:34:03.534Z,39.64
2019-03-24T09:35:03.613Z,37.55
2019-03-24T09:36:03.389Z,41.19
2019-03-24T09:37:03.486Z,39.46
2019-03-24T09:38:03.442Z,38.85
2019-03-24T09:39:03.687Z,39.66
2019-03-24T09:40:03.369Z,37.88
2019-03-24T09:41:03.532Z,37.5
2019-03-24T09:42:03.412Z,39.04
2019-03-24T09:43:03.350Z,39.02
2019-03-24T09:44:03.298Z,38.34
2019-03-24T09:45:03.171Z,38.72
2019-03-24T09:46:03.241Z,39.74
2019-03-24T09:47:03.239Z,39.13
2019-03-24T09:48:03.263Z,39.05
2019-03-24T09:49:03.655Z,38.11
2019-03-24T09:50:03.190Z,38.72
2019-03-24T09:51:03.953Z,39.71
2019-03-24T09:52:03.323Z,37.99
2019-03-24T09:53:03.336Z,36.99
2019-03-24T09:54:03.279Z,40.87
2019-03-24T09:55:03.504Z,37.79
2019-03-24T09:56:03.226Z,39.18
2019-03-24T09:57:03.090Z,39.42
2019-03-24T09:58:03.191Z,38.29
2019-03-24T09:59:03.002Z,37.34
2019-03-24T10:00:03.104Z,38.55
2019-03-24T10:01:02.922Z,39.75
2019-03-24T10:02:03.110Z,39.06
2019-03-24T10:03:03.233Z,39.14
2019-03-24T10:04:03.095Z,37.53
2019-03-24T10:05:02.952Z,39.01
2019-03-24T10:06:03.040Z,35.31
2019-03-24T10:07:03.027Z,37.81
2019-03-24T10:08:03.093Z,37.25
2019-03-24T10:09:03.021Z,40.59
2019-03-24T10:10:03.405Z,37.38
2019-03-24T10:11:02.955Z,39.34
2019-03-24T10:12:03.114Z,39.34
2019-03-24T10:13:02.977Z,38.94
2019-03-24T10:14:02.706Z,37.99
2019-03-24T10:15:03.095Z,37.28
2019-03-24T10:16:03.606Z,37.26
2019-03-24T10:17:03.118Z,37.26
2019-03-24T10:18:02.878Z,37.26
2019-03-24T10:19:14.378Z,38.84
2019-03-24T10:20:03.722Z,37.96
2019-03-24T10:21:03.715Z,36.81
2019-03-24T10:22:02.884Z,36.81
2019-03-24T10:23:02.793Z,39.28
2019-03-24T10:24:02.722Z,38.47
2019-03-24T10:25:03.401Z,39.75
2019-03-24T10:26:03.902Z,39.58
2019-03-24T10:27:03.348Z,39.02
2019-03-24T10:28:03.420Z,38.65
2019-03-24T10:29:03.421Z,36.84
2019-03-24T10:30:03.534Z,36.72
2019-03-24T10:31:03.453Z,36.55
2019-03-24T10:32:03.335Z,37.91
2019-03-24T10:33:03.419Z,37.51
2019-03-24T10:34:03.559Z,38.16
2019-03-24T10:35:03.446Z,37.46
2019-03-24T10:36:03.592Z,37.12
2019-03-24T10:37:03.493Z,36.55
2019-03-24T10:38:03.155Z,39.46
2019-03-24T10:39:03.430Z,36.97
2019-03-24T10:40:03.370Z,38.71
2019-03-24T10:41:03.422Z,37.13
2019-03-24T10:42:03.264Z,38.04
2019-03-24T10:43:03.543Z,36.44
2019-03-24T10:44:03.333Z,36.4
2019-03-24T10:45:03.291Z,35.58
2019-03-24T10:46:03.286Z,42.4
2019-03-24T10:47:03.451Z,39.2
2019-03-24T10:48:03.199Z,35.96
2019-03-24T10:49:03.163Z,36.58
2019-03-24T10:50:03.389Z,35.7
2019-03-24T10:51:03.045Z,34.3
2019-03-24T10:52:03.126Z,36.12
2019-03-24T10:53:03.002Z,36.48
2019-03-24T10:54:02.979Z,34.78
2019-03-24T10:55:02.854Z,35.04
2019-03-24T10:56:02.932Z,33.71
2019-03-24T10:57:02.561Z,31.61
2019-03-24T10:58:03.292Z,33.75
2019-03-24T10:59:03.814Z,32.82
2019-03-24T11:00:03.117Z,33.26
2019-03-24T11:01:03.159Z,34.25
2019-03-24T11:02:02.939Z,32.5
2019-03-24T11:03:02.870Z,32.5
2019-03-24T11:04:03.791Z,32.39
2019-03-24T11:05:02.885Z,32.39
2019-03-24T11:06:02.794Z,33.73
2019-03-24T11:07:02.912Z,33.73
2019-03-24T11:08:03.663Z,31.98
2019-03-24T11:09:03.699Z,34.68
2019-03-24T11:10:02.624Z,33.38
2019-03-24T11:11:03.935Z,33.9
2019-03-24T11:12:03.737Z,32.46
2019-03-24T11:13:03.818Z,32.49
2019-03-24T11:14:03.495Z,34.04
2019-03-24T11:15:03.695Z,33.14
2019-03-24T11:16:03.734Z,33.34
2019-03-24T11:17:03.533Z,34.66
2019-03-24T11:18:03.656Z,32.88
2019-03-24T11:19:02.537Z,32.76
2019-03-24T11:20:03.412Z,32.34
2019-03-24T11:21:03.551Z,31.39
2019-03-24T11:22:03.709Z,32.52
2019-03-24T11:23:03.517Z,33.55
2019-03-24T11:24:03.457Z,33.83
2019-03-24T11:25:03.650Z,33.91
2019-03-24T11:26:03.633Z,33.24
2019-03-24T11:27:03.394Z,32.32
2019-03-24T11:28:03.556Z,34.39
2019-03-24T11:29:03.768Z,35.59
2019-03-24T11:30:03.751Z,37.51
2019-03-24T11:31:03.458Z,35.29
2019-03-24T11:32:03.461Z,35.89
2019-03-24T11:33:03.337Z,35.82
2019-03-24T11:34:03.426Z,33.05
2019-03-24T11:35:02.701Z,35.37
2019-03-24T11:36:03.562Z,35.19
2019-03-24T11:37:03.757Z,36.48
2019-03-24T11:38:03.499Z,35.02
2019-03-24T11:39:03.588Z,34.02
2019-03-24T11:40:03.400Z,34.09
2019-03-24T11:41:03.558Z,34.61
2019-03-24T11:42:03.208Z,35.2
2019-03-24T11:43:03.639Z,37.02
2019-03-24T11:44:03.402Z,36.25
2019-03-24T11:45:03.617Z,35.17
2019-03-24T11:46:03.419Z,35.91
2019-03-24T11:47:03.289Z,34.15
2019-03-24T11:48:03.249Z,36.05
2019-03-24T11:49:03.565Z,36.14
2019-03-24T11:50:03.350Z,36.46
2019-03-24T11:51:03.551Z,34.91
2019-03-24T11:52:03.457Z,35.88
2019-03-24T11:53:03.291Z,34.72
2019-03-24T11:54:03.225Z,34.79
2019-03-24T11:55:03.375Z,33.64
2019-03-24T11:56:03.117Z,33.64
2019-03-24T11:57:03.076Z,32.94
2019-03-24T11:58:06.407Z,32.94
2019-03-24T11:59:03.113Z,33.29
2019-03-24T12:00:02.882Z,36.72
2019-03-24T12:01:03.072Z,37.15
2019-03-24T12:02:03.026Z,37
2019-03-24T12:03:03.235Z,35.56
2019-03-24T12:04:02.915Z,33.69
2019-03-24T12:05:03.421Z,32.35
2019-03-24T12:06:14.902Z,32.81
2019-03-24T12:07:03.185Z,32.73
2019-03-24T12:08:03.192Z,32.09
2019-03-24T12:09:02.992Z,34.77
2019-03-24T12:10:03.185Z,32.2
2019-03-24T12:11:03.031Z,33.74
2019-03-24T12:12:03.296Z,33.81
2019-03-24T12:13:03.224Z,34.55
2019-03-24T12:14:03.107Z,35.22
2019-03-24T12:15:05.602Z,33.52
2019-03-24T12:16:03.047Z,34.56
2019-03-24T12:17:02.920Z,32.46
2019-03-24T12:18:03.597Z,35.52
2019-03-24T12:19:02.928Z,33.26
2019-03-24T12:20:03.483Z,32.38
2019-03-24T12:21:03.019Z,32.41
2019-03-24T12:22:02.945Z,33.26
2019-03-24T12:23:03.253Z,35.19
2019-03-24T12:24:03.198Z,32.7
2019-03-24T12:25:02.800Z,33.21
2019-03-24T12:26:02.996Z,31.79
2019-03-24T12:27:03.022Z,33.63
2019-03-24T12:28:03.009Z,30.92
2019-03-24T12:29:03.147Z,29.56
2019-03-24T12:30:02.762Z,30.72
2019-03-24T12:31:03.047Z,29.21
2019-03-24T12:32:02.955Z,28.26
2019-03-24T12:33:03.119Z,29.92
2019-03-24T12:34:03.819Z,28.84
2019-03-24T12:35:03.011Z,28.15
2019-03-24T12:36:02.983Z,29.18
2019-03-24T12:37:03.043Z,29.06
2019-03-24T12:38:02.871Z,28.22
2019-03-24T12:39:03.684Z,30.45
2019-03-24T12:40:03.247Z,30.45
2019-03-24T12:41:03.778Z,30.8
2019-03-24T12:42:03.572Z,29.96
2019-03-24T12:43:03.765Z,29.08
2019-03-24T12:44:02.837Z,29.08
2019-03-24T12:45:03.728Z,30.22
2019-03-24T12:46:03.786Z,26.26
2019-03-24T12:47:02.859Z,26.26
2019-03-24T12:48:02.932Z,29.38
2019-03-24T12:49:03.559Z,29.23
2019-03-24T12:50:09.677Z,29.23
2019-03-24T12:51:02.797Z,27.65
2019-03-24T12:52:03.569Z,28.32
2019-03-24T12:53:03.635Z,28.47
2019-03-24T12:54:03.585Z,30.21